Time;durP1;ratioP1;P1;durP2;ratioP2;P2;SDS_P1;SDS_P2;PMS_P1;PMS_P2;Temp;Humidity;BMP_temperature;BMP_pressure;BME280_temperature;BME280_humidity;BME280_pressure;Samples;Min_cycle;Max_cycle;Signal;HPM_P1;HPM_P2
2022/07/20 00:00:48;;;;;;;2.10;1.02;;;19.30;99.90;;;;;;5095314;28;20028;-76
2022/07/20 00:03:14;;;;;;;2.38;0.80;;;19.20;99.90;;;;;;5095043;28;20032;-77
2022/07/20 00:05:41;;;;;;;1.58;0.85;;;19.10;99.90;;;;;;5095251;28;20048;-78
2022/07/20 00:08:07;;;;;;;0.38;0.38;;;19.10;99.90;;;;;;5076945;28;20097;-78
2022/07/20 00:13:18;;;;;;;0.57;0.57;;;18.90;99.90;;;;;;5095195;28;20051;-79
2022/07/20 00:15:44;;;;;;;2.05;0.60;;;19.00;99.90;;;;;;5076754;28;20361;-79
2022/07/20 00:18:10;;;;;;;0.93;0.88;;;19.00;99.90;;;;;;5095022;28;20032;-77
2022/07/20 00:20:36;;;;;;;0.80;0.80;;;19.00;99.90;;;;;;5094948;28;20019;-77
2022/07/20 00:23:03;;;;;;;1.80;0.60;;;19.00;99.90;;;;;;5094855;28;20119;-74
2022/07/20 00:25:29;;;;;;;0.80;0.80;;;19.00;99.90;;;;;;5076927;28;20440;-76
2022/07/20 00:27:55;;;;;;;1.08;0.93;;;18.90;99.90;;;;;;5094645;28;20047;-78
2022/07/20 00:30:20;;;;;;;1.05;0.82;;;18.80;99.90;;;;;;5094792;28;20102;-75
2022/07/20 00:32:46;;;;;;;0.70;0.70;;;18.80;99.90;;;;;;5094507;28;20059;-77
2022/07/20 00:35:13;;;;;;;0.60;0.60;;;18.80;99.90;;;;;;5094553;28;20024;-77
2022/07/20 00:37:40;;;;;;;1.48;0.82;;;18.80;99.90;;;;;;5094672;28;20183;-76
2022/07/20 00:40:07;;;;;;;1.50;1.40;;;18.90;99.90;;;;;;5076370;28;20110;-77
2022/07/20 00:42:34;;;;;;;2.30;1.60;;;18.80;99.90;;;;;;5076273;28;20055;-78
2022/07/20 00:45:00;;;;;;;0.90;0.65;;;18.80;99.90;;;;;;5076164;28;20031;-75
2022/07/20 00:47:26;;;;;;;0.50;0.50;;;18.80;99.90;;;;;;5094282;28;20107;-75
2022/07/20 00:49:51;;;;;;;0.40;0.40;;;18.80;99.90;;;;;;5094400;28;20516;-75
2022/07/20 00:52:17;;;;;;;3.08;0.73;;;18.80;99.90;;;;;;5094269;28;20458;-76
2022/07/20 00:54:48;;;;;;;25.25;1.90;;;18.80;99.90;;;;;;5094052;28;20052;-76
2022/07/20 00:57:15;;;;;;;1.45;0.95;;;18.70;99.90;;;;;;5093328;28;20016;-78
2022/07/20 00:59:41;;;;;;;1.38;1.27;;;18.60;99.90;;;;;;5094665;28;20020;-76
2022/07/20 01:02:07;;;;;;;0.60;0.60;;;18.60;99.90;;;;;;5094012;28;20046;-79
2022/07/20 01:04:32;;;;;;;0.73;0.73;;;18.60;99.90;;;;;;5075833;28;20064;-76
2022/07/20 01:06:58;;;;;;;0.70;0.70;;;18.70;99.90;;;;;;5093961;28;20020;-76
2022/07/20 01:09:24;;;;;;;0.38;0.38;;;18.90;99.90;;;;;;5094000;28;20077;-76
2022/07/20 01:11:50;;;;;;;0.30;0.30;;;18.90;99.90;;;;;;5093865;28;20024;-78
2022/07/20 01:14:16;;;;;;;0.98;0.50;;;18.90;99.90;;;;;;5094059;28;20069;-79
2022/07/20 01:16:42;;;;;;;2.28;1.58;;;18.80;99.90;;;;;;5093804;28;20036;-79
2022/07/20 01:19:08;;;;;;;0.70;0.70;;;18.70;99.90;;;;;;5094072;28;20387;-78
2022/07/20 01:21:40;;;;;;;0.60;0.60;;;18.70;99.90;;;;;;5075718;28;20024;-79
2022/07/20 01:24:10;;;;;;;1.38;1.20;;;18.60;99.90;;;;;;5075340;28;20028;-79
2022/07/20 01:26:37;;;;;;;0.93;0.93;;;18.60;99.90;;;;;;5093568;28;20024;-78
2022/07/20 01:29:04;;;;;;;1.02;1.02;;;18.60;99.90;;;;;;5075475;28;20046;-78
2022/07/20 01:31:29;;;;;;;2.08;0.60;;;18.50;99.90;;;;;;5093527;28;20024;-78
2022/07/20 01:33:55;;;;;;;0.68;0.68;;;18.40;99.90;;;;;;5093573;28;20031;-77
2022/07/20 01:36:21;;;;;;;1.40;1.20;;;18.30;99.90;;;;;;5093724;28;20024;-75
2022/07/20 01:38:46;;;;;;;0.57;0.57;;;18.30;99.90;;;;;;5075510;28;20086;-77
2022/07/20 01:41:12;;;;;;;0.73;0.40;;;18.30;99.90;;;;;;5093601;28;20032;-76
2022/07/20 01:43:38;;;;;;;1.52;1.02;;;18.30;99.90;;;;;;5093319;28;20552;-79
2022/07/20 01:46:03;;;;;;;0.98;0.98;;;18.30;99.90;;;;;;5075067;28;20024;-78
2022/07/20 01:48:29;;;;;;;0.90;0.90;;;18.30;99.90;;;;;;5093312;28;20039;-79
2022/07/20 01:50:54;;;;;;;1.08;0.77;;;18.30;99.90;;;;;;5093221;28;20380;-79
2022/07/20 01:53:20;;;;;;;0.80;0.80;;;18.40;99.90;;;;;;5071723;28;20048;-80
2022/07/20 01:55:46;;;;;;;1.70;0.95;;;18.40;99.90;;;;;;5073115;28;20495;-79
2022/07/20 01:58:11;;;;;;;1.80;0.75;;;18.40;99.90;;;;;;5071819;28;20056;-78
2022/07/20 02:00:37;;;;;;;4.63;0.82;;;18.40;99.90;;;;;;5073114;28;20095;-77
2022/07/20 02:03:03;;;;;;;0.40;0.40;;;18.30;99.90;;;;;;5072901;28;20119;-79
2022/07/20 02:05:28;;;;;;;0.60;0.60;;;18.30;99.90;;;;;;5073158;28;20127;-79
2022/07/20 02:07:54;;;;;;;0.63;0.55;;;18.30;99.90;;;;;;5076800;28;20526;-79
2022/07/20 02:10:20;;;;;;;0.50;0.50;;;18.20;99.90;;;;;;5079272;28;20028;-79
2022/07/20 02:12:45;;;;;;;0.30;0.30;;;18.20;99.90;;;;;;5079708;28;20074;-76
2022/07/20 02:16:14;;;;;;;1.00;1.00;;;18.20;99.90;;;;;;5078255;28;20031;-80
2022/07/20 02:17:57;;;;;;;0.50;0.50;;;18.20;99.90;;;;;;5079517;28;20016;-79
2022/07/20 02:20:23;;;;;;;1.08;1.00;;;18.20;99.90;;;;;;5079681;28;20165;-78
2022/07/20 02:22:49;;;;;;;1.10;0.80;;;18.20;99.90;;;;;;5079226;28;20024;-79
2022/07/20 02:25:14;;;;;;;0.60;0.60;;;18.30;99.90;;;;;;5078084;28;20074;-79
2022/07/20 02:27:40;;;;;;;1.00;1.00;;;18.40;99.90;;;;;;5079807;28;20093;-77
2022/07/20 02:30:06;;;;;;;0.60;0.60;;;18.50;99.90;;;;;;5079130;28;20035;-78
2022/07/20 02:32:32;;;;;;;2.03;0.70;;;18.50;99.90;;;;;;5079462;28;20180;-76
2022/07/20 02:34:57;;;;;;;1.88;1.38;;;18.50;99.90;;;;;;5079400;28;20496;-77
2022/07/20 02:37:23;;;;;;;0.50;0.50;;;18.60;99.90;;;;;;5079418;28;20504;-77
2022/07/20 02:39:48;;;;;;;0.85;0.85;;;18.60;99.90;;;;;;5079397;28;20025;-79
2022/07/20 02:42:14;;;;;;;1.30;0.90;;;18.60;99.90;;;;;;5079036;28;20020;-76
2022/07/20 02:44:40;;;;;;;1.70;1.15;;;18.60;99.90;;;;;;5079180;28;20488;-76
2022/07/20 02:47:06;;;;;;;0.65;0.65;;;18.60;99.90;;;;;;5079186;28;20016;-77
2022/07/20 02:49:31;;;;;;;1.67;0.80;;;18.50;99.90;;;;;;5079200;28;20027;-76
2022/07/20 02:51:57;;;;;;;1.40;1.10;;;18.50;99.90;;;;;;5078003;28;20473;-76
2022/07/20 02:54:23;;;;;;;1.27;1.08;;;18.40;99.90;;;;;;5093721;28;20119;-77
2022/07/20 02:56:49;;;;;;;1.70;1.60;;;18.40;99.90;;;;;;5099278;28;20036;-75
2022/07/20 02:59:14;;;;;;;1.00;1.00;;;18.40;99.90;;;;;;5099295;28;20032;-75
2022/07/20 03:01:40;;;;;;;1.15;0.88;;;18.40;99.90;;;;;;5099301;28;20051;-77
2022/07/20 03:04:06;;;;;;;0.30;0.30;;;18.50;99.90;;;;;;5099159;28;20039;-77
2022/07/20 03:06:31;;;;;;;0.98;0.93;;;18.50;99.90;;;;;;5099308;28;20034;-79
2022/07/20 03:08:57;;;;;;;0.75;0.75;;;;;;;;;;5099846;28;20457;-76
2022/07/20 03:11:23;;;;;;;0.70;0.70;;;18.50;99.90;;;;;;5099461;28;20027;-79
2022/07/20 03:13:49;;;;;;;2.45;1.35;;;18.50;99.90;;;;;;5099304;28;20034;-76
2022/07/20 03:16:15;;;;;;;1.90;1.80;;;18.60;99.90;;;;;;5099214;28;20072;-78
2022/07/20 03:18:40;;;;;;;0.88;0.88;;;18.50;99.90;;;;;;5097345;28;20115;-77
2022/07/20 03:21:06;;;;;;;4.88;1.00;;;18.50;99.90;;;;;;5077655;28;20028;-77
2022/07/20 03:23:31;;;;;;;0.63;0.63;;;18.50;99.90;;;;;;5095877;28;20043;-76
2022/07/20 03:25:57;;;;;;;2.15;1.17;;;18.40;99.90;;;;;;5096155;28;20025;-78
2022/07/20 03:28:23;;;;;;;0.80;0.47;;;18.40;99.90;;;;;;5095989;28;20123;-78
2022/07/20 03:30:48;;;;;;;1.08;0.98;;;18.40;99.90;;;;;;5095893;28;20050;-79
2022/07/20 03:33:14;;;;;;;1.40;1.30;;;18.50;99.90;;;;;;5095819;28;20125;-77
2022/07/20 03:35:40;;;;;;;2.35;1.08;;;18.60;99.90;;;;;;5077556;28;20464;-79
2022/07/20 03:38:05;;;;;;;0.95;0.95;;;18.80;99.90;;;;;;5095654;28;20111;-79
2022/07/20 03:40:31;;;;;;;0.70;0.70;;;18.80;99.90;;;;;;5095452;28;20020;-79
2022/07/20 03:42:57;;;;;;;1.67;0.77;;;18.90;99.90;;;;;;5077254;28;20086;-79
2022/07/20 03:45:22;;;;;;;0.60;0.60;;;19.10;99.90;;;;;;5077507;28;20472;-79
2022/07/20 03:47:48;;;;;;;1.30;0.70;;;19.20;99.90;;;;;;5095705;28;20472;-78
2022/07/20 03:50:14;;;;;;;1.10;0.70;;;19.20;99.90;;;;;;5077501;28;20035;-79
2022/07/20 03:52:39;;;;;;;1.60;1.10;;;19.30;99.90;;;;;;5095278;28;20058;-79
2022/07/20 03:55:05;;;;;;;0.98;0.70;;;19.30;99.90;;;;;;5095431;28;20073;-78
2022/07/20 03:57:31;;;;;;;0.70;0.70;;;19.30;99.90;;;;;;5095202;28;20024;-79
2022/07/20 03:59:57;;;;;;;7.10;1.30;;;19.20;99.90;;;;;;5095245;28;20157;-76
2022/07/20 04:02:22;;;;;;;1.25;1.13;;;19.20;99.90;;;;;;5076999;28;20085;-79
2022/07/20 04:04:48;;;;;;;0.55;0.55;;;19.20;99.90;;;;;;5095181;28;20028;-76
2022/07/20 04:07:14;;;;;;;0.70;0.70;;;19.20;99.90;;;;;;5095473;28;20069;-78
2022/07/20 04:09:49;;;;;;;0.68;0.68;;;19.30;99.90;;;;;;5076880;28;20057;-78
2022/07/20 04:12:21;;;;;;;0.68;0.68;;;19.40;99.90;;;;;;5095293;28;20024;-77
2022/07/20 04:14:49;;;;;;;0.77;0.77;;;19.50;99.90;;;;;;5097725;28;20024;-77
2022/07/20 04:17:16;;;;;;;0.60;0.60;;;19.60;99.90;;;;;;5080729;28;20052;-78
2022/07/20 04:19:42;;;;;;;0.55;0.55;;;19.60;99.90;;;;;;5095280;28;20036;-79
2022/07/20 04:22:08;;;;;;;0.57;0.57;;;19.60;99.90;;;;;;5095878;28;20383;-78
2022/07/20 04:24:35;;;;;;;0.43;0.43;;;19.70;99.90;;;;;;5082059;28;20352;-78
2022/07/20 04:27:01;;;;;;;0.75;0.75;;;19.70;99.90;;;;;;5099092;28;20032;-79
2022/07/20 04:29:28;;;;;;;0.80;0.80;;;19.90;99.90;;;;;;5096531;28;20110;-76
2022/07/20 04:31:53;;;;;;;1.63;1.48;;;20.00;99.90;;;;;;5080661;28;20104;-77
2022/07/20 04:34:19;;;;;;;2.63;1.15;;;20.00;99.90;;;;;;5094611;28;20031;-76
2022/07/20 04:36:45;;;;;;;1.98;0.98;;;20.10;99.90;;;;;;5094472;28;20028;-75
2022/07/20 04:39:11;;;;;;;3.85;1.90;;;20.10;99.90;;;;;;5094172;28;20024;-75
2022/07/20 04:41:37;;;;;;;2.28;1.88;;;20.10;99.90;;;;;;5076275;28;20024;-75
2022/07/20 04:44:03;;;;;;;3.15;1.15;;;20.20;99.90;;;;;;5076435;28;20396;-74
2022/07/20 04:46:28;;;;;;;4.50;0.93;;;20.40;99.90;;;;;;5094526;28;20413;-76
2022/07/20 04:48:55;;;;;;;3.70;0.68;;;20.40;99.90;;;;;;5094933;28;20028;-77
2022/07/20 04:51:21;;;;;;;13.05;0.70;;;20.50;99.90;;;;;;5094343;28;20024;-76
2022/07/20 04:53:46;;;;;;;1.35;1.25;;;20.50;99.90;;;;;;5094052;28;20052;-76
2022/07/20 04:56:12;;;;;;;1.73;1.58;;;20.50;99.90;;;;;;5075723;28;20060;-75
2022/07/20 04:58:38;;;;;;;5.88;2.15;;;20.80;99.90;;;;;;5096352;28;20087;-76
2022/07/20 05:01:04;;;;;;;3.13;1.58;;;20.80;99.90;;;;;;5076449;28;20024;-76
2022/07/20 05:03:29;;;;;;;4.07;2.30;;;21.00;99.90;;;;;;5098975;28;20048;-77
2022/07/20 05:05:55;;;;;;;2.63;0.98;;;21.00;99.90;;;;;;5100838;28;20346;-77
2022/07/20 05:08:20;;;;;;;1.67;0.65;;;21.10;99.90;;;;;;5096371;28;20422;-77
2022/07/20 05:10:46;;;;;;;1.55;0.85;;;21.10;99.90;;;;;;5093972;28;20035;-74
2022/07/20 05:13:12;;;;;;;1.00;0.90;;;21.10;99.90;;;;;;5093884;28;20035;-75
2022/07/20 05:15:37;;;;;;;1.23;1.05;;;21.20;99.90;;;;;;5084586;28;20042;-75
2022/07/20 05:18:03;;;;;;;1.33;1.15;;;21.20;99.90;;;;;;5104329;28;20079;-76
2022/07/20 05:20:29;;;;;;;0.65;0.65;;;21.30;99.90;;;;;;5100436;28;20050;-73
2022/07/20 05:22:54;;;;;;;6.22;0.98;;;21.50;99.90;;;;;;5096705;28;20162;-77
2022/07/20 05:25:20;;;;;;;0.93;0.82;;;21.70;99.90;;;;;;5093906;28;20023;-80
2022/07/20 05:27:46;;;;;;;0.93;0.93;;;21.80;99.90;;;;;;5075592;28;20024;-74
2022/07/20 05:30:12;;;;;;;1.20;0.82;;;21.90;99.90;;;;;;5093571;28;20158;-75
2022/07/20 05:32:37;;;;;;;0.73;0.73;;;22.00;99.90;;;;;;5093746;28;20028;-75
2022/07/20 05:35:04;;;;;;;0.75;0.75;;;22.20;99.90;;;;;;5093560;28;20392;-76
2022/07/20 05:37:30;;;;;;;0.80;0.80;;;22.40;99.90;;;;;;5075318;28;20024;-74
2022/07/20 05:39:55;;;;;;;3.33;2.10;;;22.50;99.90;;;;;;5093477;28;20082;-75
2022/07/20 05:42:21;;;;;;;11.57;0.98;;;22.50;99.90;;;;;;5074769;28;20081;-74
2022/07/20 05:44:47;;;;;;;1.45;0.88;;;22.60;99.90;;;;;;5075230;28;20052;-75
2022/07/20 05:47:12;;;;;;;1.00;1.00;;;22.70;99.90;;;;;;5093955;28;20028;-75
2022/07/20 05:49:38;;;;;;;1.05;1.05;;;23.10;99.90;;;;;;5093389;28;20028;-74
2022/07/20 05:52:04;;;;;;;0.85;0.85;;;23.40;99.90;;;;;;5093082;28;20073;-74
2022/07/20 05:54:30;;;;;;;0.73;0.73;;;23.60;99.90;;;;;;5093071;28;20373;-74
2022/07/20 05:56:56;;;;;;;0.90;0.68;;;23.80;99.90;;;;;;5093173;28;20039;-73
2022/07/20 05:59:22;;;;;;;1.02;1.02;;;23.80;99.90;;;;;;5093442;28;20027;-73
2022/07/20 06:01:47;;;;;;;1.85;1.60;;;24.00;99.90;;;;;;5093436;28;20032;-74
2022/07/20 06:04:14;;;;;;;1.30;0.70;;;24.20;99.90;;;;;;5093107;28;20129;-73
2022/07/20 06:06:40;;;;;;;1.85;1.30;;;24.30;99.90;;;;;;5075134;28;20389;-75
2022/07/20 06:09:07;;;;;;;3.35;1.55;;;24.60;99.90;;;;;;5092945;28;20031;-74
2022/07/20 06:11:33;;;;;;;1.88;1.35;;;24.80;99.90;;;;;;5092897;28;20027;-75
2022/07/20 06:13:59;;;;;;;1.92;1.63;;;25.00;99.90;;;;;;5093099;28;20036;-78
2022/07/20 06:16:25;;;;;;;2.10;1.70;;;25.40;99.90;;;;;;5092715;28;20028;-75
2022/07/20 06:18:51;;;;;;;1.08;0.82;;;26.40;99.90;;;;;;5093364;28;20042;-82
2022/07/20 06:21:17;;;;;;;2.60;1.20;;;27.40;99.90;;;;;;5093307;28;20047;-76
2022/07/20 06:23:42;;;;;;;2.50;1.73;;;28.10;92.40;;;;;;5093333;28;20064;-78
2022/07/20 06:26:08;;;;;;;2.13;0.85;;;28.10;91.00;;;;;;5093115;28;20023;-76
2022/07/20 06:28:34;;;;;;;2.85;2.05;;;28.10;90.00;;;;;;5076008;28;20481;-80
2022/07/20 06:31:00;;;;;;;1.45;1.35;;;27.80;91.10;;;;;;5092834;28;20469;-78
2022/07/20 06:33:26;;;;;;;0.82;0.82;;;27.90;91.10;;;;;;5092879;28;20024;-78
2022/07/20 06:35:51;;;;;;;1.05;1.00;;;28.00;88.70;;;;;;5092824;28;20501;-78
2022/07/20 06:38:17;;;;;;;4.10;1.13;;;28.10;83.70;;;;;;5074845;28;20032;-76
2022/07/20 06:40:43;;;;;;;2.83;1.38;;;28.00;83.00;;;;;;5096102;28;20024;-76
2022/07/20 06:43:09;;;;;;;2.40;1.27;;;28.10;84.10;;;;;;5075168;28;20032;-76
2022/07/20 06:45:35;;;;;;;5.32;1.00;;;28.20;82.40;;;;;;5092821;28;20095;-76
2022/07/20 06:48:00;;;;;;;1.02;1.02;;;28.20;81.30;;;;;;5074439;28;20050;-76
2022/07/20 06:50:26;;;;;;;0.95;0.73;;;28.00;80.90;;;;;;5074561;28;20066;-76
2022/07/20 06:52:52;;;;;;;2.72;1.30;;;27.90;76.40;;;;;;5092572;28;20031;-76
2022/07/20 06:55:17;;;;;;;2.03;1.23;;;27.60;77.60;;;;;;5095516;28;20099;-76
2022/07/20 06:57:44;;;;;;;1.45;1.00;;;27.50;77.40;;;;;;5096640;28;20024;-75
2022/07/20 07:00:11;;;;;;;0.85;0.85;;;27.20;76.80;;;;;;5078336;28;20135;-75
2022/07/20 07:02:37;;;;;;;1.33;1.27;;;26.80;77.50;;;;;;5096362;28;20024;-76
2022/07/20 07:05:03;;;;;;;1.77;1.67;;;26.70;80.20;;;;;;5096456;28;20326;-76
2022/07/20 07:07:29;;;;;;;9.88;1.25;;;27.20;79.30;;;;;;5077971;28;20027;-76
2022/07/20 07:09:55;;;;;;;2.10;1.08;;;27.60;79.30;;;;;;5096238;28;20476;-75
2022/07/20 07:12:21;;;;;;;1.02;1.02;;;27.50;78.50;;;;;;5077935;28;20062;-76
2022/07/20 07:14:47;;;;;;;1.83;1.02;;;28.10;76.70;;;;;;5096163;28;20020;-76
2022/07/20 07:17:12;;;;;;;0.75;0.75;;;28.90;75.20;;;;;;5078147;28;20031;-76
2022/07/20 07:19:41;;;;;;;1.35;1.25;;;29.70;72.20;;;;;;5096344;28;20098;-76
2022/07/20 07:22:06;;;;;;;1.70;1.25;;;29.80;70.40;;;;;;5096225;28;20110;-77
2022/07/20 07:24:32;;;;;;;1.75;1.55;;;30.40;69.70;;;;;;5096085;28;20453;-76
2022/07/20 07:26:58;;;;;;;4.55;2.42;;;30.80;68.20;;;;;;5096015;28;20020;-76
2022/07/20 07:29:25;;;;;;;3.25;1.50;;;31.20;68.10;;;;;;5095832;28;20024;-75
2022/07/20 07:31:51;;;;;;;2.13;1.30;;;31.50;67.20;;;;;;5095868;28;20031;-76
2022/07/20 07:34:17;;;;;;;2.15;1.63;;;32.00;65.20;;;;;;5095976;28;20443;-75
2022/07/20 07:36:42;;;;;;;4.78;1.95;;;31.60;65.70;;;;;;5095899;28;20111;-76
2022/07/20 07:39:08;;;;;;;6.20;2.05;;;31.10;66.60;;;;;;5095896;28;20055;-75
2022/07/20 07:41:34;;;;;;;2.63;2.45;;;31.00;67.60;;;;;;5077818;28;20545;-76
2022/07/20 07:43:59;;;;;;;4.47;2.35;;;30.50;68.50;;;;;;5095453;28;20036;-75
2022/07/20 07:46:25;;;;;;;3.97;2.33;;;29.90;70.20;;;;;;5077082;28;20031;-76
2022/07/20 07:48:51;;;;;;;8.00;3.20;;;29.60;72.10;;;;;;5077338;28;20444;-76
2022/07/20 07:51:17;;;;;;;6.78;3.72;;;29.70;72.30;;;;;;5095452;28;20055;-76
2022/07/20 07:53:42;;;;;;;3.60;3.15;;;29.60;72.20;;;;;;5095277;28;20132;-75
2022/07/20 07:56:08;;;;;;;6.15;3.78;;;30.30;73.50;;;;;;5095392;28;20049;-77
2022/07/20 07:58:35;;;;;;;5.63;3.78;;;30.80;70.60;;;;;;5095262;28;20048;-76
2022/07/20 08:01:01;;;;;;;14.18;4.47;;;30.70;68.70;;;;;;5095306;28;20020;-77
2022/07/20 08:03:26;;;;;;;5.45;3.40;;;30.30;70.50;;;;;;5095199;28;20032;-76
2022/07/20 08:05:52;;;;;;;5.07;3.05;;;30.70;71.20;;;;;;5094946;28;20024;-76
2022/07/20 08:08:18;;;;;;;4.18;2.80;;;30.50;70.00;;;;;;5095042;28;20027;-77
2022/07/20 08:10:44;;;;;;;3.15;1.92;;;31.00;71.10;;;;;;5095089;28;20058;-77
2022/07/20 08:13:12;;;;;;;2.63;2.53;;;31.20;70.60;;;;;;5095286;28;20016;-76
2022/07/20 08:15:38;;;;;;;2.85;2.65;;;31.10;69.70;;;;;;5095151;28;20024;-76
2022/07/20 08:18:04;;;;;;;5.07;2.80;;;30.70;71.20;;;;;;5095037;28;20028;-74
2022/07/20 08:20:30;;;;;;;13.27;2.92;;;29.90;72.60;;;;;;5076935;28;20114;-76
2022/07/20 08:22:56;;;;;;;6.75;4.00;;;29.30;75.20;;;;;;5095035;28;20035;-77
2022/07/20 08:25:22;;;;;;;2.40;2.30;;;29.30;75.90;;;;;;5094711;28;20461;-75
2022/07/20 08:27:48;;;;;;;3.22;2.95;;;29.90;76.90;;;;;;5094682;28;20173;-76
2022/07/20 08:30:14;;;;;;;3.35;3.00;;;30.30;74.80;;;;;;5094674;28;20028;-78
2022/07/20 08:32:40;;;;;;;6.32;3.60;;;30.60;74.00;;;;;;5076644;28;20096;-78
2022/07/20 08:35:06;;;;;;;3.78;3.42;;;30.40;75.10;;;;;;5094666;28;20028;-77
2022/07/20 08:37:32;;;;;;;6.30;4.85;;;30.70;75.40;;;;;;5094707;28;20048;-76
2022/07/20 08:39:58;;;;;;;3.97;2.97;;;31.10;75.40;;;;;;5094501;28;20446;-77
2022/07/20 08:42:24;;;;;;;3.67;3.15;;;31.50;76.10;;;;;;5094347;28;20100;-79
2022/07/20 08:44:50;;;;;;;4.85;2.35;;;29.00;70.20;;;;;;5094438;28;20028;-79
2022/07/20 08:47:16;;;;;;;12.15;3.90;;;30.60;74.60;;;;;;5076154;28;20031;-76
2022/07/20 08:49:47;;;;;;;4.35;2.65;;;31.40;75.00;;;;;;5076302;28;20467;-76
2022/07/20 08:52:13;;;;;;;4.03;3.10;;;32.00;70.70;;;;;;5094435;28;20028;-76
2022/07/20 08:54:39;;;;;;;3.33;2.15;;;32.00;70.30;;;;;;5075952;28;20044;-76
2022/07/20 08:57:09;;;;;;;3.40;2.38;;;32.30;71.30;;;;;;5076103;28;20035;-76
2022/07/20 08:59:35;;;;;;;6.57;3.30;;;32.20;70.50;;;;;;5093958;28;20028;-76
2022/07/20 09:02:04;;;;;;;5.65;3.35;;;32.00;69.70;;;;;;5094061;28;20120;-75
2022/07/20 09:04:30;;;;;;;3.80;3.20;;;32.00;68.90;;;;;;5075654;28;20488;-75
2022/07/20 09:06:56;;;;;;;3.25;3.05;;;32.00;70.60;;;;;;5075929;28;20027;-76
2022/07/20 09:09:22;;;;;;;5.30;2.85;;;32.40;67.80;;;;;;5094269;28;20020;-77
2022/07/20 09:11:49;;;;;;;4.63;3.55;;;32.90;67.70;;;;;;5094020;28;20380;-75
2022/07/20 09:14:37;;;;;;;10.60;4.32;;;32.90;67.50;;;;;;5094000;28;20380;-76
2022/07/20 09:17:17;;;;;;;5.35;4.13;;;31.80;68.90;;;;;;5075001;28;20086;-76
2022/07/20 09:20:05;;;;;;;4.45;3.80;;;31.30;69.20;;;;;;5093735;28;20032;-77
2022/07/20 09:22:34;;;;;;;15.75;5.70;;;31.00;69.90;;;;;;5093685;28;20114;-75
2022/07/20 09:25:09;;;;;;;4.97;3.13;;;31.40;70.50;;;;;;5093718;28;20062;-76
2022/07/20 09:27:35;;;;;;;12.75;3.88;;;32.10;69.50;;;;;;5075532;28;20515;-77
2022/07/20 09:30:16;;;;;;;4.55;3.60;;;31.80;68.30;;;;;;5093658;28;20024;-80
2022/07/20 09:32:58;;;;;;;6.93;2.88;;;31.80;69.50;;;;;;5093653;28;20020;-76
2022/07/20 09:35:27;;;;;;;4.13;3.03;;;30.70;68.80;;;;;;5093691;28;20024;-75
2022/07/20 09:37:54;;;;;;;;;;;29.80;71.20;;;;;;5075702;28;20028;-76
2022/07/20 09:40:20;;;;;;;6.90;4.30;;;29.10;73.60;;;;;;5093260;28;19904;-73
2022/07/20 09:42:47;;;;;;;5.78;4.47;;;28.50;91.20;;;;;;5093214;28;20035;-75
2022/07/20 09:45:19;;;;;;;41.08;4.10;;;27.40;99.60;;;;;;5093411;28;20012;-75
2022/07/20 09:48:03;;;;;;;7.78;3.92;;;26.40;99.90;;;;;;5093399;28;20024;-75
2022/07/20 09:50:37;;;;;;;18.60;7.03;;;25.60;99.90;;;;;;5075339;28;20065;-75
2022/07/20 09:53:03;;;;;;;5.22;4.72;;;25.10;99.90;;;;;;5093141;28;20047;-75
2022/07/20 09:55:30;;;;;;;5.03;4.32;;;24.80;99.90;;;;;;5093143;28;20036;-75
2022/07/20 09:57:57;;;;;;;5.20;4.25;;;24.80;99.90;;;;;;5093132;28;20028;-78
2022/07/20 10:00:23;;;;;;;7.85;4.53;;;24.70;99.90;;;;;;5074681;28;20098;-74
2022/07/20 10:02:52;;;;;;;4.28;3.33;;;24.70;99.90;;;;;;5092951;28;20043;-75
2022/07/20 10:05:19;;;;;;;;;;;24.60;99.90;;;;;;5075580;28;20020;-74
2022/07/20 10:07:46;;;;;;;6.35;3.38;;;24.50;99.90;;;;;;5093097;28;20261;-74
2022/07/20 10:10:12;;;;;;;6.55;4.13;;;24.50;99.90;;;;;;5093150;28;20030;-75
2022/07/20 10:12:38;;;;;;;13.18;5.97;;;24.40;99.90;;;;;;5093274;28;20032;-75
2022/07/20 10:15:13;;;;;;;5.82;4.18;;;24.30;99.90;;;;;;5093342;28;20081;-75
2022/07/20 10:17:40;;;;;;;11.55;6.10;;;24.30;99.90;;;;;;5082987;28;20414;-75
2022/07/20 10:20:32;;;;;;;5.57;4.07;;;24.30;99.90;;;;;;5092918;28;20032;-74
2022/07/20 10:23:28;;;;;;;8.75;4.25;;;24.20;99.90;;;;;;5092908;28;20020;-76
2022/07/20 10:25:55;;;;;;;11.13;5.32;;;24.20;99.90;;;;;;5084317;28;20081;-77
2022/07/20 10:28:24;;;;;;;7.28;3.95;;;24.20;99.90;;;;;;5094280;28;20020;-76
2022/07/20 10:30:54;;;;;;;8.93;5.37;;;24.10;99.90;;;;;;5097184;28;20090;-76
2022/07/20 10:33:21;;;;;;;7.88;5.28;;;24.20;99.90;;;;;;5097000;28;20048;-76
2022/07/20 10:35:48;;;;;;;5.22;4.43;;;24.20;99.90;;;;;;5078754;28;20027;-76
2022/07/20 10:38:21;;;;;;;5.38;3.45;;;24.20;99.90;;;;;;5078611;28;20024;-75
2022/07/20 10:44:22;;;;;;;6.93;3.33;;;24.60;99.90;;;;;;5096906;28;20081;-76
2022/07/20 10:46:49;;;;;;;8.80;5.57;;;25.00;99.90;;;;;;5096895;28;20022;-78
2022/07/20 10:49:15;;;;;;;10.57;4.90;;;26.50;99.90;;;;;;5096848;28;20069;-76
2022/07/20 10:51:42;;;;;;;8.70;4.28;;;25.90;99.90;;;;;;5096754;28;20073;-77
2022/07/20 10:54:35;;;;;;;8.13;5.28;;;26.80;99.90;;;;;;5078206;28;20123;-76
2022/07/20 10:57:02;;;;;;;4.43;4.03;;;27.70;99.90;;;;;;5096433;28;20031;-76
2022/07/20 10:59:28;;;;;;;6.97;5.13;;;28.00;99.90;;;;;;5096456;28;20468;-77
2022/07/20 11:01:54;;;;;;;12.45;6.47;;;28.20;99.90;;;;;;5096497;28;20035;-76
2022/07/20 11:04:21;;;;;;;13.70;3.90;;;28.40;99.90;;;;;;5096529;28;20032;-76
2022/07/20 11:06:48;;;;;;;4.85;3.60;;;29.10;99.90;;;;;;5099660;28;20099;-75
2022/07/20 11:09:13;;;;;;;5.20;4.22;;;29.40;95.70;;;;;;5096232;28;20028;-76
2022/07/20 11:11:40;;;;;;;4.63;3.60;;;29.90;93.60;;;;;;5101566;28;20078;-75
2022/07/20 11:14:09;;;;;;;4.28;3.75;;;30.60;92.90;;;;;;5098919;28;20023;-75
2022/07/20 11:16:36;;;;;;;10.73;4.90;;;30.60;88.70;;;;;;5106689;28;20020;-78
2022/07/20 11:19:04;;;;;;;8.23;4.55;;;30.40;80.70;;;;;;5088541;28;20024;-76
2022/07/20 11:21:30;;;;;;;6.32;3.40;;;30.70;82.30;;;;;;5096477;28;20055;-78
2022/07/20 11:23:56;;;;;;;5.25;2.58;;;30.70;80.10;;;;;;5078283;28;20039;-75
2022/07/20 11:26:22;;;;;;;4.60;2.65;;;31.40;78.90;;;;;;5077871;28;20020;-75
2022/07/20 11:28:48;;;;;;;17.75;4.53;;;31.50;75.50;;;;;;5077668;28;20066;-75
2022/07/20 11:31:16;;;;;;;5.10;3.33;;;31.80;72.10;;;;;;5095913;28;20047;-76
2022/07/20 11:33:45;;;;;;;2.70;2.45;;;31.60;70.70;;;;;;5077779;28;20020;-79
2022/07/20 11:36:13;;;;;;;6.75;2.88;;;30.90;70.80;;;;;;5095902;28;20024;-77
2022/07/20 11:38:41;;;;;;;7.25;2.88;;;31.30;69.90;;;;;;5077577;28;20108;-77
2022/07/20 11:41:09;;;;;;;3.22;3.03;;;31.30;67.90;;;;;;5095014;28;20027;-76
2022/07/20 11:43:36;;;;;;;4.63;3.40;;;31.10;69.00;;;;;;5095670;28;20032;-75
2022/07/20 11:46:43;;;;;;;3.42;2.58;;;30.90;68.50;;;;;;5095698;28;20024;-76
2022/07/20 11:49:14;;;;;;;5.45;3.65;;;30.90;68.40;;;;;;5082356;28;20021;-75
2022/07/20 11:51:43;;;;;;;4.40;3.42;;;31.70;66.70;;;;;;5095295;28;20028;-76
2022/07/20 11:54:09;;;;;;;2.88;2.55;;;32.80;64.40;;;;;;5095281;28;20048;-77
2022/07/20 11:56:37;;;;;;;4.20;2.75;;;33.00;62.30;;;;;;5095383;28;20028;-77
2022/07/20 11:59:07;;;;;;;5.17;2.70;;;33.00;60.80;;;;;;5095456;28;20107;-74
2022/07/20 12:01:36;;;;;;;3.00;2.80;;;33.70;60.50;;;;;;5095497;28;20070;-75
2022/07/20 12:04:14;;;;;;;4.18;2.85;;;33.40;59.50;;;;;;5095271;28;20035;-75
2022/07/20 12:06:42;;;;;;;3.63;2.83;;;32.70;61.50;;;;;;5095322;28;20024;-75
2022/07/20 12:09:07;;;;;;;3.15;2.58;;;32.40;61.60;;;;;;5076907;28;20032;-75
2022/07/20 12:11:52;;;;;;;3.92;2.95;;;32.30;63.20;;;;;;5076946;28;20024;-75
2022/07/20 12:14:36;;;;;;;4.75;3.03;;;31.80;63.00;;;;;;5095102;28;20028;-74
2022/07/20 12:17:19;;;;;;;8.02;2.67;;;31.20;63.40;;;;;;5095094;28;20027;-75
2022/07/20 12:19:47;;;;;;;6.63;2.85;;;31.00;63.70;;;;;;5095155;28;20035;-74
2022/07/20 12:22:19;;;;;;;4.18;3.42;;;30.90;64.60;;;;;;5095023;28;20024;-74
2022/07/20 12:24:57;;;;;;;4.03;3.63;;;31.90;62.80;;;;;;5076806;28;20559;-74
2022/07/20 12:27:24;;;;;;;3.65;2.85;;;32.40;61.80;;;;;;5076692;28;20115;-74
2022/07/20 12:29:50;;;;;;;3.58;2.67;;;32.70;61.60;;;;;;5094683;28;20533;-75
2022/07/20 12:32:26;;;;;;;5.63;2.72;;;32.60;59.70;;;;;;5094642;28;20028;-76
2022/07/20 12:34:53;;;;;;;3.22;2.58;;;32.60;58.50;;;;;;5094641;28;20504;-72
2022/07/20 12:37:20;;;;;;;5.70;2.83;;;33.00;59.60;;;;;;5094704;28;20494;-75
2022/07/20 12:39:49;;;;;;;3.65;3.17;;;33.70;58.70;;;;;;5076392;28;20024;-76
2022/07/20 12:42:24;;;;;;;4.05;3.10;;;33.90;57.80;;;;;;5094594;28;20099;-72
2022/07/20 12:45:04;;;;;;;3.95;3.15;;;35.00;57.90;;;;;;5094394;28;20055;-74
2022/07/20 12:47:30;;;;;;;4.32;2.85;;;35.80;54.20;;;;;;5094660;28;20024;-74
2022/07/20 12:49:56;;;;;;;4.63;2.53;;;35.60;54.00;;;;;;5094198;28;20039;-74
2022/07/20 12:52:23;;;;;;;7.55;2.38;;;35.40;54.70;;;;;;5094678;28;20456;-74
2022/07/20 12:54:49;;;;;;;6.20;4.15;;;35.80;53.30;;;;;;5094101;28;20066;-73